sensor_id;sensor_type;location;lat;lon;timestamp;pressure;altitude;pressure_sealevel;temperature;humidity
6038;BME280;3047;42.600;23.470;2023-02-17T00:01:57;93915.75;;;3.75;78.85
6038;BME280;3047;42.600;23.470;2023-02-17T00:04:26;93904.13;;;3.78;79.89
6038;BME280;3047;42.600;23.470;2023-02-17T00:06:53;93915.00;;;3.85;78.84
6038;BME280;3047;42.600;23.470;2023-02-17T00:09:21;93917.44;;;3.80;79.10
6038;BME280;3047;42.600;23.470;2023-02-17T00:11:48;93913.22;;;3.73;79.54
6038;BME280;3047;42.600;23.470;2023-02-17T00:14:15;93904.91;;;3.74;79.45
6038;BME280;3047;42.600;23.470;2023-02-17T00:16:42;93923.16;;;3.68;79.39
6038;BME280;3047;42.600;23.470;2023-02-17T00:19:11;93919.81;;;3.65;80.06
6038;BME280;3047;42.600;23.470;2023-02-17T00:21:51;93912.13;;;3.50;80.82
6038;BME280;3047;42.600;23.470;2023-02-17T00:24:18;93919.53;;;3.42;80.50
6038;BME280;3047;42.600;23.470;2023-02-17T00:26:46;93915.41;;;3.45;80.51
6038;BME280;3047;42.600;23.470;2023-02-17T00:29:13;93913.75;;;3.46;81.75
6038;BME280;3047;42.600;23.470;2023-02-17T00:31:40;93904.56;;;3.43;80.86
6038;BME280;3047;42.600;23.470;2023-02-17T00:34:06;93912.03;;;3.40;81.20
6038;BME280;3047;42.600;23.470;2023-02-17T00:36:33;93904.56;;;3.43;81.43
6038;BME280;3047;42.600;23.470;2023-02-17T00:39:00;93900.34;;;3.39;81.57
6038;BME280;3047;42.600;23.470;2023-02-17T00:41:27;93902.78;;;3.35;82.87
6038;BME280;3047;42.600;23.470;2023-02-17T00:43:56;93902.97;;;3.49;82.54
6038;BME280;3047;42.600;23.470;2023-02-17T00:46:23;93892.91;;;3.44;82.73
6038;BME280;3047;42.600;23.470;2023-02-17T00:48:50;93894.56;;;3.40;82.66
6038;BME280;3047;42.600;23.470;2023-02-17T00:51:18;93898.66;;;3.37;82.61
6038;BME280;3047;42.600;23.470;2023-02-17T00:53:45;93892.84;;;3.36;83.02
6038;BME280;3047;42.600;23.470;2023-02-17T00:56:12;93878.50;;;3.21;82.68
6038;BME280;3047;42.600;23.470;2023-02-17T00:58:39;93889.28;;;3.19;83.33
6038;BME280;3047;42.600;23.470;2023-02-17T01:01:08;93881.78;;;3.17;83.86
6038;BME280;3047;42.600;23.470;2023-02-17T01:03:35;93883.66;;;3.35;82.65
6038;BME280;3047;42.600;23.470;2023-02-17T01:06:05;93871.16;;;3.32;82.61
6038;BME280;3047;42.600;23.470;2023-02-17T01:08:32;93895.44;;;3.47;81.91
6038;BME280;3047;42.600;23.470;2023-02-17T01:10:59;93893.78;;;3.46;81.81
6038;BME280;3047;42.600;23.470;2023-02-17T01:13:25;93895.44;;;3.47;81.59
6038;BME280;3047;42.600;23.470;2023-02-17T01:15:52;93891.19;;;3.38;82.19
6038;BME280;3047;42.600;23.470;2023-02-17T01:18:22;93878.72;;;3.40;82.26
6038;BME280;3047;42.600;23.470;2023-02-17T01:20:49;93873.84;;;3.49;81.22
6038;BME280;3047;42.600;23.470;2023-02-17T01:23:16;93863.00;;;3.49;81.54
6038;BME280;3047;42.600;23.470;2023-02-17T01:25:44;93863.97;;;3.63;81.38
6038;BME280;3047;42.600;23.470;2023-02-17T01:28:14;93880.66;;;3.67;81.71
6038;BME280;3047;42.600;23.470;2023-02-17T01:30:41;93832.06;;;3.36;82.05
6038;BME280;3047;42.600;23.470;2023-02-17T01:33:08;93876.44;;;3.60;82.17
6038;BME280;3047;42.600;23.470;2023-02-17T01:35:36;93811.06;;;3.17;81.95
6038;BME280;3047;42.600;23.470;2023-02-17T01:38:02;93849.47;;;3.31;82.63
6038;BME280;3047;42.600;23.470;2023-02-17T01:40:29;93874.69;;;3.51;82.38
6038;BME280;3047;42.600;23.470;2023-02-17T01:42:56;93866.41;;;3.55;82.38
6038;BME280;3047;42.600;23.470;2023-02-17T01:45:36;93866.44;;;3.58;82.16
6038;BME280;3047;42.600;23.470;2023-02-17T01:48:07;93850.44;;;3.44;81.54
6038;BME280;3047;42.600;23.470;2023-02-17T01:50:40;93853.91;;;3.54;81.82
6038;BME280;3047;42.600;23.470;2023-02-17T01:53:10;93872.19;;;3.50;82.35
6038;BME280;3047;42.600;23.470;2023-02-17T01:55:40;93857.88;;;3.38;82.53
6038;BME280;3047;42.600;23.470;2023-02-17T01:58:10;93872.00;;;3.36;82.45
6038;BME280;3047;42.600;23.470;2023-02-17T02:00:38;93873.66;;;3.32;82.92
6038;BME280;3047;42.600;23.470;2023-02-17T02:03:08;93875.88;;;3.09;84.12
6038;BME280;3047;42.600;23.470;2023-02-17T02:05:38;93870.72;;;2.98;84.91
6038;BME280;3047;42.600;23.470;2023-02-17T02:08:10;93809.69;;;2.72;84.60
6038;BME280;3047;42.600;23.470;2023-02-17T02:10:37;93858.19;;;2.94;84.89
6038;BME280;3047;42.600;23.470;2023-02-17T02:13:04;93874.16;;;3.05;85.63
6038;BME280;3047;42.600;23.470;2023-02-17T02:15:36;93867.22;;;2.84;85.91
6038;BME280;3047;42.600;23.470;2023-02-17T02:18:23;93850.56;;;2.83;86.07
6038;BME280;3047;42.600;23.470;2023-02-17T02:24:04;93837.09;;;2.69;87.09
6038;BME280;3047;42.600;23.470;2023-02-17T02:32:42;93853.16;;;2.88;86.22
6038;BME280;3047;42.600;23.470;2023-02-17T02:35:16;93855.63;;;2.88;86.87
6038;BME280;3047;42.600;23.470;2023-02-17T02:37:49;93850.56;;;2.83;87.08
6038;BME280;3047;42.600;23.470;2023-02-17T02:40:20;93848.78;;;2.71;87.89
6038;BME280;3047;42.600;23.470;2023-02-17T02:42:47;93851.22;;;2.70;88.25
6038;BME280;3047;42.600;23.470;2023-02-17T02:45:16;93842.81;;;2.62;87.41
6038;BME280;3047;42.600;23.470;2023-02-17T02:47:47;93848.72;;;2.70;88.09
6038;BME280;3047;42.600;23.470;2023-02-17T02:50:16;93842.84;;;2.65;88.39
6038;BME280;3047;42.600;23.470;2023-02-17T02:52:54;93854.34;;;2.55;88.28
6038;BME280;3047;42.600;23.470;2023-02-17T02:55:36;93872.72;;;2.60;87.67
6038;BME280;3047;42.600;23.470;2023-02-17T02:58:15;93862.66;;;2.54;88.72
6038;BME280;3047;42.600;23.470;2023-02-17T03:00:48;93872.84;;;2.71;87.94
6038;BME280;3047;42.600;23.470;2023-02-17T03:03:23;93867.88;;;2.71;88.29
6038;BME280;3047;42.600;23.470;2023-02-17T03:05:57;93871.03;;;2.59;87.97
6038;BME280;3047;42.600;23.470;2023-02-17T03:08:29;93857.81;;;2.63;87.58
6038;BME280;3047;42.600;23.470;2023-02-17T03:10:57;93858.50;;;2.55;88.01
6038;BME280;3047;42.600;23.470;2023-02-17T03:13:23;93859.53;;;2.69;88.21
6038;BME280;3047;42.600;23.470;2023-02-17T03:15:50;93850.91;;;2.47;89.05
6038;BME280;3047;42.600;23.470;2023-02-17T03:18:17;93823.22;;;2.29;89.04
6038;BME280;3047;42.600;23.470;2023-02-17T03:20:50;93850.19;;;2.54;87.64
6038;BME280;3047;42.600;23.470;2023-02-17T03:23:17;93829.16;;;2.35;88.47
6038;BME280;3047;42.600;23.470;2023-02-17T03:25:44;93862.03;;;2.69;87.75
6038;BME280;3047;42.600;23.470;2023-02-17T03:28:12;93869.28;;;2.52;87.87
6038;BME280;3047;42.600;23.470;2023-02-17T03:30:39;93870.72;;;2.38;89.50
6038;BME280;3047;42.600;23.470;2023-02-17T03:33:06;93872.59;;;2.53;88.14
6038;BME280;3047;42.600;23.470;2023-02-17T03:35:33;93873.50;;;2.56;88.32
6038;BME280;3047;42.600;23.470;2023-02-17T03:38:01;93854.22;;;2.44;88.27
6038;BME280;3047;42.600;23.470;2023-02-17T03:40:28;93855.03;;;2.43;88.41
6038;BME280;3047;42.600;23.470;2023-02-17T03:42:55;93863.47;;;2.55;88.24
6038;BME280;3047;42.600;23.470;2023-02-17T03:45:22;93865.06;;;2.50;88.97
6038;BME280;3047;42.600;23.470;2023-02-17T03:47:49;93867.56;;;2.48;88.48
6038;BME280;3047;42.600;23.470;2023-02-17T03:50:16;93858.84;;;2.21;90.02
6038;BME280;3047;42.600;23.470;2023-02-17T03:52:44;93848.91;;;2.25;89.97
6038;BME280;3047;42.600;23.470;2023-02-17T03:55:12;93837.41;;;2.33;90.75
6038;BME280;3047;42.600;23.470;2023-02-17T03:57:39;93847.63;;;2.48;89.79
6038;BME280;3047;42.600;23.470;2023-02-17T04:00:07;93857.69;;;2.56;89.62
6038;BME280;3047;42.600;23.470;2023-02-17T04:02:35;93855.44;;;2.16;90.09
6038;BME280;3047;42.600;23.470;2023-02-17T04:05:01;93843.75;;;2.12;90.95
6038;BME280;3047;42.600;23.470;2023-02-17T04:07:28;93848.91;;;2.25;91.52
6038;BME280;3047;42.600;23.470;2023-02-17T04:09:55;93857.19;;;2.22;91.98
6038;BME280;3047;42.600;23.470;2023-02-17T04:12:23;93857.09;;;2.16;91.94
6038;BME280;3047;42.600;23.470;2023-02-17T04:14:50;93830.97;;;1.92;92.29
6038;BME280;3047;42.600;23.470;2023-02-17T04:17:17;93857.03;;;2.11;92.30
6038;BME280;3047;42.600;23.470;2023-02-17T04:19:43;93852.25;;;2.25;91.64
6038;BME280;3047;42.600;23.470;2023-02-17T04:22:10;93871.34;;;2.25;92.20
6038;BME280;3047;42.600;23.470;2023-02-17T04:24:37;93790.47;;;1.51;92.66
6038;BME280;3047;42.600;23.470;2023-02-17T04:27:04;93860.44;;;2.16;92.69
6038;BME280;3047;42.600;23.470;2023-02-17T04:29:32;93848.88;;;2.21;92.55
6038;BME280;3047;42.600;23.470;2023-02-17T04:31:59;93838.22;;;2.32;91.66
6038;BME280;3047;42.600;23.470;2023-02-17T04:34:26;93857.53;;;2.43;90.74
6038;BME280;3047;42.600;23.470;2023-02-17T04:36:53;93858.41;;;2.48;91.17
6038;BME280;3047;42.600;23.470;2023-02-17T04:39:19;93848.34;;;2.42;91.37
6038;BME280;3047;42.600;23.470;2023-02-17T04:41:46;93850.00;;;2.40;91.99
6038;BME280;3047;42.600;23.470;2023-02-17T04:44:13;93848.44;;;2.48;91.73
6038;BME280;3047;42.600;23.470;2023-02-17T04:46:41;93855.22;;;2.59;90.36
6038;BME280;3047;42.600;23.470;2023-02-17T04:49:08;93802.53;;;2.34;89.96
6038;BME280;3047;42.600;23.470;2023-02-17T04:51:34;93858.72;;;2.70;90.31
6038;BME280;3047;42.600;23.470;2023-02-17T04:54:01;93868.47;;;2.55;90.01
6038;BME280;3047;42.600;23.470;2023-02-17T04:56:28;93872.59;;;2.53;90.62
6038;BME280;3047;42.600;23.470;2023-02-17T04:58:55;93885.84;;;2.50;90.44
6038;BME280;3047;42.600;23.470;2023-02-17T05:01:21;93897.44;;;2.45;90.69
6038;BME280;3047;42.600;23.470;2023-02-17T05:03:49;93857.13;;;2.17;91.13
6038;BME280;3047;42.600;23.470;2023-02-17T05:06:16;93884.03;;;2.38;91.84
6038;BME280;3047;42.600;23.470;2023-02-17T05:08:43;93882.16;;;2.27;92.42
6038;BME280;3047;42.600;23.470;2023-02-17T05:11:12;93880.53;;;2.27;92.39
6038;BME280;3047;42.600;23.470;2023-02-17T05:13:39;93877.31;;;2.34;91.30
6038;BME280;3047;42.600;23.470;2023-02-17T05:16:05;93884.91;;;2.40;91.04
6038;BME280;3047;42.600;23.470;2023-02-17T05:18:33;93827.03;;;2.05;90.82
6038;BME280;3047;42.600;23.470;2023-02-17T05:21:02;93851.44;;;2.26;91.22
6038;BME280;3047;42.600;23.470;2023-02-17T05:23:29;93881.59;;;2.43;91.52
6038;BME280;3047;42.600;23.470;2023-02-17T05:25:55;93884.09;;;2.43;90.82
6038;BME280;3047;42.600;23.470;2023-02-17T05:28:22;93907.34;;;2.42;91.39
6038;BME280;3047;42.600;23.470;2023-02-17T05:30:49;93873.78;;;2.21;91.77
6038;BME280;3047;42.600;23.470;2023-02-17T05:33:16;93863.00;;;2.22;91.48
6038;BME280;3047;42.600;23.470;2023-02-17T05:35:43;93889.81;;;2.37;91.48
6038;BME280;3047;42.600;23.470;2023-02-17T05:38:11;93880.72;;;2.39;90.60
6038;BME280;3047;42.600;23.470;2023-02-17T05:40:37;93883.91;;;2.31;90.31
6038;BME280;3047;42.600;23.470;2023-02-17T05:43:04;93899.03;;;2.43;90.67
6038;BME280;3047;42.600;23.470;2023-02-17T05:45:31;93901.72;;;2.54;90.83
6038;BME280;3047;42.600;23.470;2023-02-17T05:47:58;93903.34;;;2.52;90.48
6038;BME280;3047;42.600;23.470;2023-02-17T05:50:25;93912.22;;;2.34;91.75
6038;BME280;3047;42.600;23.470;2023-02-17T05:52:51;93872.59;;;1.98;92.26
6038;BME280;3047;42.600;23.470;2023-02-17T05:55:20;93913.16;;;2.42;92.02
6038;BME280;3047;42.600;23.470;2023-02-17T05:57:47;93925.16;;;2.66;90.57
6038;BME280;3047;42.600;23.470;2023-02-17T06:00:15;93922.63;;;2.62;91.85
6038;BME280;3047;42.600;23.470;2023-02-17T06:02:41;93928.72;;;2.81;90.73
6038;BME280;3047;42.600;23.470;2023-02-17T06:05:08;93913.03;;;2.88;89.11
6038;BME280;3047;42.600;23.470;2023-02-17T06:07:35;93927.41;;;3.06;88.38
6038;BME280;3047;42.600;23.470;2023-02-17T06:10:02;93903.22;;;3.00;88.53
6038;BME280;3047;42.600;23.470;2023-02-17T06:12:30;93921.94;;;3.33;88.27
6038;BME280;3047;42.600;23.470;2023-02-17T06:14:57;93928.75;;;3.46;87.71
6038;BME280;3047;42.600;23.470;2023-02-17T06:17:24;93941.19;;;3.41;89.12
6038;BME280;3047;42.600;23.470;2023-02-17T06:19:51;93935.50;;;3.53;88.62
6038;BME280;3047;42.600;23.470;2023-02-17T06:22:17;93937.16;;;3.53;88.24
6038;BME280;3047;42.600;23.470;2023-02-17T06:24:44;93932.22;;;3.60;87.38
6038;BME280;3047;42.600;23.470;2023-02-17T06:27:11;93928.09;;;3.64;86.40
6038;BME280;3047;42.600;23.470;2023-02-17T06:29:39;93937.44;;;3.77;85.99
6038;BME280;3047;42.600;23.470;2023-02-17T06:32:06;93934.28;;;3.95;84.16
6038;BME280;3047;42.600;23.470;2023-02-17T06:34:33;93920.22;;;4.08;83.47
6038;BME280;3047;42.600;23.470;2023-02-17T06:36:59;93928.72;;;4.24;83.46
6038;BME280;3047;42.600;23.470;2023-02-17T06:39:26;93943.84;;;4.40;83.67
6038;BME280;3047;42.600;23.470;2023-02-17T06:41:53;93943.31;;;4.77;83.32
6038;BME280;3047;42.600;23.470;2023-02-17T06:44:19;93934.25;;;4.94;83.09
6038;BME280;3047;42.600;23.470;2023-02-17T06:46:47;93954.53;;;5.38;82.02
6038;BME280;3047;42.600;23.470;2023-02-17T06:49:14;93954.66;;;5.63;80.62
6038;BME280;3047;42.600;23.470;2023-02-17T06:51:41;93943.16;;;6.09;78.78
6038;BME280;3047;42.600;23.470;2023-02-17T06:54:08;93938.19;;;6.57;76.03
6038;BME280;3047;42.600;23.470;2023-02-17T06:56:34;93957.44;;;7.10;73.50
6038;BME280;3047;42.600;23.470;2023-02-17T06:59:01;93942.22;;;7.53;72.20
6038;BME280;3047;42.600;23.470;2023-02-17T07:01:28;93939.72;;;7.62;70.35
6038;BME280;3047;42.600;23.470;2023-02-17T07:03:56;93957.94;;;8.05;69.07
6038;BME280;3047;42.600;23.470;2023-02-17T07:06:24;93950.25;;;8.36;67.83
6038;BME280;3047;42.600;23.470;2023-02-17T07:08:51;93924.16;;;8.52;64.65
6038;BME280;3047;42.600;23.470;2023-02-17T07:11:18;93952.44;;;8.88;64.31
6038;BME280;3047;42.600;23.470;2023-02-17T07:13:45;93947.44;;;8.83;63.75
6038;BME280;3047;42.600;23.470;2023-02-17T07:16:13;93943.78;;;9.13;64.62
6038;BME280;3047;42.600;23.470;2023-02-17T07:18:40;93927.09;;;9.02;63.39
6038;BME280;3047;42.600;23.470;2023-02-17T07:21:09;93946.28;;;9.20;63.29
6038;BME280;3047;42.600;23.470;2023-02-17T07:23:36;93951.19;;;9.32;62.82
6038;BME280;3047;42.600;23.470;2023-02-17T07:26:04;93938.53;;;9.36;62.67
6038;BME280;3047;42.600;23.470;2023-02-17T07:28:32;93959.19;;;9.71;61.41
6038;BME280;3047;42.600;23.470;2023-02-17T07:31:04;93904.81;;;9.45;61.03
6038;BME280;3047;42.600;23.470;2023-02-17T07:33:31;93971.13;;;10.30;60.01
6038;BME280;3047;42.600;23.470;2023-02-17T07:35:58;93964.13;;;10.49;57.13
6038;BME280;3047;42.600;23.470;2023-02-17T07:38:26;93975.50;;;11.29;56.41
6038;BME280;3047;42.600;23.470;2023-02-17T07:40:53;93963.38;;;11.48;54.39
6038;BME280;3047;42.600;23.470;2023-02-17T07:43:20;93966.00;;;11.90;53.43
6038;BME280;3047;42.600;23.470;2023-02-17T07:45:46;93966.50;;;12.08;52.71
6038;BME280;3047;42.600;23.470;2023-02-17T07:48:13;93966.91;;;11.87;53.30
6038;BME280;3047;42.600;23.470;2023-02-17T07:50:40;93961.91;;;11.36;54.16
6038;BME280;3047;42.600;23.470;2023-02-17T07:53:06;93941.09;;;10.68;56.77
6038;BME280;3047;42.600;23.470;2023-02-17T07:55:35;93965.69;;;10.58;57.54
6038;BME280;3047;42.600;23.470;2023-02-17T07:58:01;93962.88;;;10.14;58.36
6038;BME280;3047;42.600;23.470;2023-02-17T08:00:28;93953.66;;;10.10;59.81
6038;BME280;3047;42.600;23.470;2023-02-17T08:02:55;93954.47;;;10.12;58.29
6038;BME280;3047;42.600;23.470;2023-02-17T08:05:22;93961.25;;;10.09;59.17
6038;BME280;3047;42.600;23.470;2023-02-17T08:07:48;93967.88;;;10.16;56.91
6038;BME280;3047;42.600;23.470;2023-02-17T08:10:38;93930.34;;;9.93;56.54
6038;BME280;3047;42.600;23.470;2023-02-17T08:13:22;93966.88;;;10.31;56.93
6038;BME280;3047;42.600;23.470;2023-02-17T08:15:49;93957.78;;;10.18;56.97
6038;BME280;3047;42.600;23.470;2023-02-17T08:18:16;93961.25;;;10.09;57.82
6038;BME280;3047;42.600;23.470;2023-02-17T08:20:43;93962.38;;;9.86;57.69
6038;BME280;3047;42.600;23.470;2023-02-17T08:23:10;93966.28;;;9.35;60.35
6038;BME280;3047;42.600;23.470;2023-02-17T08:25:38;93958.06;;;9.14;60.68
6038;BME280;3047;42.600;23.470;2023-02-17T08:28:04;93965.69;;;9.07;61.80
6038;BME280;3047;42.600;23.470;2023-02-17T08:30:34;93938.28;;;8.69;60.00
6038;BME280;3047;42.600;23.470;2023-02-17T08:33:02;93963.50;;;8.67;62.50
6038;BME280;3047;42.600;23.470;2023-02-17T08:35:29;93963.44;;;8.76;62.73
6038;BME280;3047;42.600;23.470;2023-02-17T08:37:56;93966.81;;;8.71;63.57
6038;BME280;3047;42.600;23.470;2023-02-17T08:40:23;93964.25;;;8.78;63.04
6038;BME280;3047;42.600;23.470;2023-02-17T08:42:52;93942.56;;;8.59;63.63
6038;BME280;3047;42.600;23.470;2023-02-17T08:45:18;93952.56;;;8.66;65.63
6038;BME280;3047;42.600;23.470;2023-02-17T08:47:45;93975.28;;;8.62;65.42
6038;BME280;3047;42.600;23.470;2023-02-17T08:50:15;93966.84;;;8.68;64.48
6038;BME280;3047;42.600;23.470;2023-02-17T08:52:44;93969.50;;;8.51;65.21
6038;BME280;3047;42.600;23.470;2023-02-17T08:55:11;93947.72;;;8.34;64.89
6038;BME280;3047;42.600;23.470;2023-02-17T08:57:38;93977.88;;;8.47;63.32
6038;BME280;3047;42.600;23.470;2023-02-17T09:00:08;93982.13;;;8.43;64.85
6038;BME280;3047;42.600;23.470;2023-02-17T09:02:35;93978.72;;;8.46;63.83
6038;BME280;3047;42.600;23.470;2023-02-17T09:05:03;93972.75;;;8.62;62.14
6038;BME280;3047;42.600;23.470;2023-02-17T09:07:29;93976.13;;;8.61;64.08
6038;BME280;3047;42.600;23.470;2023-02-17T09:09:56;93967.03;;;8.43;64.03
6038;BME280;3047;42.600;23.470;2023-02-17T09:12:23;93982.91;;;8.51;62.91
6038;BME280;3047;42.600;23.470;2023-02-17T09:14:50;93976.97;;;8.58;63.28
6038;BME280;3047;42.600;23.470;2023-02-17T09:17:18;93976.16;;;8.59;61.12
6038;BME280;3047;42.600;23.470;2023-02-17T09:19:44;93973.56;;;8.65;61.53
6038;BME280;3047;42.600;23.470;2023-02-17T09:22:12;93982.78;;;8.66;61.92
6038;BME280;3047;42.600;23.470;2023-02-17T09:24:41;93976.78;;;8.83;61.26
6038;BME280;3047;42.600;23.470;2023-02-17T09:27:08;93974.34;;;8.74;62.32
6038;BME280;3047;42.600;23.470;2023-02-17T09:29:36;93950.91;;;8.69;62.44
6038;BME280;3047;42.600;23.470;2023-02-17T09:32:05;93946.75;;;8.60;63.84
6038;BME280;3047;42.600;23.470;2023-02-17T09:34:35;93968.53;;;8.65;64.58
6038;BME280;3047;42.600;23.470;2023-02-17T09:37:02;93964.25;;;8.77;63.26
6038;BME280;3047;42.600;23.470;2023-02-17T09:39:29;93969.19;;;8.89;61.61
6038;BME280;3047;42.600;23.470;2023-02-17T09:41:55;93968.38;;;8.88;63.92
6038;BME280;3047;42.600;23.470;2023-02-17T09:44:24;93965.84;;;8.91;62.35
6038;BME280;3047;42.600;23.470;2023-02-17T09:46:56;93971.59;;;9.06;60.52
6038;BME280;3047;42.600;23.470;2023-02-17T09:49:27;93912.16;;;8.79;59.88
6038;BME280;3047;42.600;23.470;2023-02-17T09:52:03;93908.81;;;8.81;59.03
6038;BME280;3047;42.600;23.470;2023-02-17T09:54:36;93954.66;;;9.20;59.53
6038;BME280;3047;42.600;23.470;2023-02-17T09:57:07;93963.78;;;9.30;59.77
6038;BME280;3047;42.600;23.470;2023-02-17T09:59:41;93964.59;;;9.35;59.08
6038;BME280;3047;42.600;23.470;2023-02-17T10:02:13;93965.34;;;9.45;57.28
6038;BME280;3047;42.600;23.470;2023-02-17T10:04:46;93963.50;;;9.61;57.53
6038;BME280;3047;42.600;23.470;2023-02-17T10:07:19;93965.13;;;9.63;56.19
6038;BME280;3047;42.600;23.470;2023-02-17T10:09:49;93937.56;;;9.50;56.78
6038;BME280;3047;42.600;23.470;2023-02-17T10:12:20;93900.75;;;9.33;57.88
6038;BME280;3047;42.600;23.470;2023-02-17T10:14:54;93954.97;;;9.71;56.41
6038;BME280;3047;42.600;23.470;2023-02-17T10:17:25;93954.91;;;9.77;56.19
6038;BME280;3047;42.600;23.470;2023-02-17T10:20:01;93954.06;;;9.78;57.38
6038;BME280;3047;42.600;23.470;2023-02-17T10:22:31;93953.94;;;9.87;56.04
6038;BME280;3047;42.600;23.470;2023-02-17T10:24:59;93945.50;;;9.90;55.53
6038;BME280;3047;42.600;23.470;2023-02-17T10:27:33;93941.28;;;9.90;52.95
6038;BME280;3047;42.600;23.470;2023-02-17T10:30:27;93947.03;;;10.00;51.85
6038;BME280;3047;42.600;23.470;2023-02-17T10:32:59;93942.63;;;10.16;52.77
6038;BME280;3047;42.600;23.470;2023-02-17T10:35:48;93919.84;;;10.25;52.42
6038;BME280;3047;42.600;23.470;2023-02-17T10:38:20;93928.00;;;10.43;51.21
6038;BME280;3047;42.600;23.470;2023-02-17T10:40:54;93923.94;;;10.34;52.04
6038;BME280;3047;42.600;23.470;2023-02-17T10:43:25;93917.97;;;10.38;53.51
6038;BME280;3047;42.600;23.470;2023-02-17T10:45:54;93921.19;;;10.49;52.86
6038;BME280;3047;42.600;23.470;2023-02-17T10:48:27;93913.56;;;10.51;51.16
6038;BME280;3047;42.600;23.470;2023-02-17T10:50:59;93914.31;;;10.57;50.65
6038;BME280;3047;42.600;23.470;2023-02-17T10:53:31;93910.88;;;10.63;52.90
6038;BME280;3047;42.600;23.470;2023-02-17T10:56:03;93846.28;;;10.47;51.94
6038;BME280;3047;42.600;23.470;2023-02-17T10:58:35;93897.84;;;10.87;50.23
6038;BME280;3047;42.600;23.470;2023-02-17T11:01:06;93891.41;;;11.18;51.64
6038;BME280;3047;42.600;23.470;2023-02-17T11:03:34;93900.09;;;11.49;51.03
6038;BME280;3047;42.600;23.470;2023-02-17T11:06:04;93895.50;;;11.70;51.09
6038;BME280;3047;42.600;23.470;2023-02-17T11:08:36;93876.84;;;11.74;48.28
6038;BME280;3047;42.600;23.470;2023-02-17T11:11:06;93890.63;;;12.04;48.27
6038;BME280;3047;42.600;23.470;2023-02-17T11:13:43;93871.41;;;12.32;48.34
6038;BME280;3047;42.600;23.470;2023-02-17T11:16:21;93876.09;;;12.85;45.92
6038;BME280;3047;42.600;23.470;2023-02-17T11:18:51;93873.97;;;13.02;45.96
6038;BME280;3047;42.600;23.470;2023-02-17T11:21:18;93875.84;;;13.28;43.79
6038;BME280;3047;42.600;23.470;2023-02-17T11:23:53;93863.22;;;13.58;43.99
6038;BME280;3047;42.600;23.470;2023-02-17T11:26:23;93857.75;;;13.72;43.26
6038;BME280;3047;42.600;23.470;2023-02-17T11:28:50;93860.63;;;13.91;44.47
6038;BME280;3047;42.600;23.470;2023-02-17T11:31:25;93861.38;;;14.22;42.58
6038;BME280;3047;42.600;23.470;2023-02-17T11:33:52;93858.59;;;14.30;40.79
6038;BME280;3047;42.600;23.470;2023-02-17T11:36:23;93855.69;;;14.42;42.16
6038;BME280;3047;42.600;23.470;2023-02-17T11:38:51;93847.94;;;14.47;42.95
6038;BME280;3047;42.600;23.470;2023-02-17T11:41:18;93848.44;;;14.58;43.17
6038;BME280;3047;42.600;23.470;2023-02-17T11:43:53;93793.38;;;14.30;42.96
6038;BME280;3047;42.600;23.470;2023-02-17T11:46:24;93841.06;;;14.77;42.27
6038;BME280;3047;42.600;23.470;2023-02-17T11:49:21;93853.72;;;14.78;40.92
6038;BME280;3047;42.600;23.470;2023-02-17T11:52:09;93840.56;;;14.66;40.76
6038;BME280;3047;42.600;23.470;2023-02-17T11:54:47;93821.19;;;14.62;41.95
6038;BME280;3047;42.600;23.470;2023-02-17T11:57:26;93842.84;;;14.75;41.42
6038;BME280;3047;42.600;23.470;2023-02-17T12:00:04;93776.25;;;14.35;39.36
6038;BME280;3047;42.600;23.470;2023-02-17T12:03:11;93801.25;;;14.49;41.03
6038;BME280;3047;42.600;23.470;2023-02-17T12:05:50;93837.19;;;14.65;40.02
6038;BME280;3047;42.600;23.470;2023-02-17T12:08:23;93832.41;;;14.56;39.69
6038;BME280;3047;42.600;23.470;2023-02-17T12:11:03;93817.50;;;14.44;40.65
6038;BME280;3047;42.600;23.470;2023-02-17T12:13:42;93827.50;;;14.50;41.36
6038;BME280;3047;42.600;23.470;2023-02-17T12:16:20;93810.81;;;14.41;42.61
6038;BME280;3047;42.600;23.470;2023-02-17T12:19:01;93821.72;;;14.45;41.64
6038;BME280;3047;42.600;23.470;2023-02-17T12:21:38;93809.53;;;14.28;41.51
6038;BME280;3047;42.600;23.470;2023-02-17T12:24:21;93797.97;;;14.18;41.02
6038;BME280;3047;42.600;23.470;2023-02-17T12:27:00;93800.13;;;14.30;41.69
6038;BME280;3047;42.600;23.470;2023-02-17T12:29:41;93815.44;;;14.28;41.79
6038;BME280;3047;42.600;23.470;2023-02-17T12:32:26;93782.69;;;14.19;41.19
6038;BME280;3047;42.600;23.470;2023-02-17T12:35:00;93805.09;;;14.34;44.01
6038;BME280;3047;42.600;23.470;2023-02-17T12:37:30;93798.22;;;14.38;42.77
6038;BME280;3047;42.600;23.470;2023-02-17T12:40:00;93798.97;;;14.40;43.46
6038;BME280;3047;42.600;23.470;2023-02-17T12:42:32;93788.13;;;14.35;42.75
6038;BME280;3047;42.600;23.470;2023-02-17T12:45:03;93775.53;;;14.32;41.95
6038;BME280;3047;42.600;23.470;2023-02-17T12:47:37;93777.38;;;14.27;42.85
6038;BME280;3047;42.600;23.470;2023-02-17T12:50:10;93799.63;;;14.47;43.12
6038;BME280;3047;42.600;23.470;2023-02-17T12:52:43;93797.28;;;14.41;41.92
6038;BME280;3047;42.600;23.470;2023-02-17T12:55:13;93784.78;;;14.34;41.27
6038;BME280;3047;42.600;23.470;2023-02-17T12:57:47;93784.53;;;14.42;42.24
6038;BME280;3047;42.600;23.470;2023-02-17T13:00:21;93787.25;;;14.36;41.79
6038;BME280;3047;42.600;23.470;2023-02-17T13:02:49;93781.53;;;14.29;41.03
6038;BME280;3047;42.600;23.470;2023-02-17T13:05:21;93781.72;;;14.23;42.23
6038;BME280;3047;42.600;23.470;2023-02-17T13:07:55;93770.25;;;14.12;41.71
6038;BME280;3047;42.600;23.470;2023-02-17T13:10:31;93776.38;;;14.04;41.85
6038;BME280;3047;42.600;23.470;2023-02-17T13:13:03;93766.19;;;13.78;41.60
6038;BME280;3047;42.600;23.470;2023-02-17T13:15:34;93750.97;;;13.48;42.09
6038;BME280;3047;42.600;23.470;2023-02-17T13:18:04;93789.28;;;13.69;43.36
6038;BME280;3047;42.600;23.470;2023-02-17T13:20:53;93786.34;;;13.54;44.81
6038;BME280;3047;42.600;23.470;2023-02-17T13:23:35;93781.41;;;13.48;44.93
6038;BME280;3047;42.600;23.470;2023-02-17T13:26:13;93757.84;;;13.14;45.50
6038;BME280;3047;42.600;23.470;2023-02-17T13:28:43;93766.22;;;13.17;47.34
6038;BME280;3047;42.600;23.470;2023-02-17T13:31:13;93740.66;;;12.92;46.54
6038;BME280;3047;42.600;23.470;2023-02-17T13:33:43;93771.63;;;13.05;46.36
6038;BME280;3047;42.600;23.470;2023-02-17T13:36:12;93775.44;;;12.87;47.50
6038;BME280;3047;42.600;23.470;2023-02-17T13:38:39;93778.44;;;12.70;49.94
6038;BME280;3047;42.600;23.470;2023-02-17T13:41:06;93772.78;;;12.60;49.99
6038;BME280;3047;42.600;23.470;2023-02-17T13:43:40;93770.44;;;12.53;48.96